Puerto Barrios Airport

Airport
ICAO code: 
MGPB
IATA Code: 
PBR
Summary
ICAO Region: 
CARSAM
Territory: 
Location: 
Esperanza, Izabel Department
Serving: 
Puerto Barrios
Elevation: 
33 ft
Coordinates: 
Aerial View: 
15° 43' 54.499" N, 88° 35' 5.2" W
Metar
Observation
MGPB 220000Z 03004KT 9999 FEW020TCU 26/22 Q1013 A2991 TCU N
Station
Puerto Barrios
Date/Time
2022-01-22 00:00:00
Wind direction
30°
Wind speed
04 kts
Lowest cloud amount
few clouds
Temperature
26°C
Dew point
22°C
Humidity
78%
QNH
1013 hPa
Weather condition
n/a

Puerto Barrios Airport (formerly Base Aérea de Izabal) serves the city of Puerto Barrios, the port of Santo Tomás de Castilla and the Guatemalan Caribbean.

Climatology

Tropical rainforest climate (Köppen climate classification Af)

Runways

Designator Length Width Surface Rops
12/30 2707 34 CON No/No
Airport map: 
Aerial View: 

SKYbrary Partners:

Safety knowledge contributed by: